createdAt,value
2022-08-19T00:00:10.648Z,7.10
2022-08-19T00:03:34.329Z,6.90
2022-08-19T00:06:58.224Z,6.90
2022-08-19T00:10:24.963Z,6.77
2022-08-19T00:13:49.330Z,6.07
2022-08-19T00:17:12.811Z,6.13
2022-08-19T00:20:37.391Z,6.00
2022-08-19T00:24:01.477Z,6.47
2022-08-19T00:27:26.984Z,7.43
2022-08-19T00:30:52.676Z,6.00
2022-08-19T00:34:17.313Z,6.17
2022-08-19T00:37:44.554Z,7.43
2022-08-19T00:41:09.705Z,7.50
2022-08-19T00:44:34.582Z,7.27
2022-08-19T00:47:58.162Z,6.80
2022-08-19T00:51:22.566Z,6.60
2022-08-19T00:54:52.483Z,6.40
2022-08-19T00:58:26.505Z,7.20
2022-08-19T01:01:51.510Z,6.77
2022-08-19T01:05:21.638Z,6.50
2022-08-19T01:08:45.447Z,6.60
2022-08-19T01:12:11.303Z,7.27
2022-08-19T01:15:42.380Z,7.07
2022-08-19T01:19:29.257Z,7.00
2022-08-19T01:22:58.740Z,6.90
2022-08-19T01:26:27.042Z,7.33
2022-08-19T01:29:50.518Z,7.13
2022-08-19T01:33:14.404Z,7.30
2022-08-19T01:36:42.705Z,6.90
2022-08-19T01:40:09.968Z,7.50
2022-08-19T01:43:33.825Z,6.90
2022-08-19T01:46:57.721Z,6.70
2022-08-19T01:50:21.808Z,6.97
2022-08-19T01:53:49.305Z,6.90
2022-08-19T01:57:16.392Z,6.80
2022-08-19T02:04:39.980Z,8.50
2022-08-19T02:08:03.527Z,7.50
2022-08-19T02:11:32.534Z,7.37
2022-08-19T02:14:57.382Z,7.90
2022-08-19T02:18:21.260Z,7.80
2022-08-19T02:21:51.425Z,7.87
2022-08-19T02:25:16.599Z,7.20
2022-08-19T02:28:40.436Z,6.80
2022-08-19T02:32:07.958Z,7.13
2022-08-19T02:35:31.409Z,8.87
2022-08-19T02:38:55.928Z,9.20
2022-08-19T02:42:19.341Z,8.40
2022-08-19T02:45:43.034Z,8.33
2022-08-19T02:49:10.046Z,8.57
2022-08-19T02:52:35.399Z,9.93
2022-08-19T02:55:59.152Z,8.50
2022-08-19T02:59:23.234Z,8.60
2022-08-19T03:02:47.820Z,8.40
2022-08-19T03:06:17.315Z,7.50
2022-08-19T03:09:41.079Z,8.50
2022-08-19T03:13:05.520Z,8.63
2022-08-19T03:16:35.221Z,10.83
2022-08-19T03:19:59.068Z,12.27
2022-08-19T03:23:25.874Z,9.37
2022-08-19T03:26:53.625Z,9.90
2022-08-19T03:30:17.138Z,10.80
2022-08-19T03:33:47.598Z,8.50
2022-08-19T03:37:14.890Z,8.57
2022-08-19T03:40:40.352Z,9.73
2022-08-19T03:44:05.298Z,9.20
2022-08-19T03:47:36.171Z,8.87
2022-08-19T03:51:00.939Z,10.40
2022-08-19T03:54:27.260Z,9.70
2022-08-19T03:57:55.168Z,10.33
2022-08-19T04:01:30.700Z,8.57
2022-08-19T04:04:59.114Z,10.00
2022-08-19T04:08:23.370Z,9.07
2022-08-19T04:11:54.708Z,10.63
2022-08-19T04:15:20.479Z,9.60
2022-08-19T04:18:44.175Z,8.77
2022-08-19T04:22:08.750Z,9.30
2022-08-19T04:25:39.569Z,10.30
2022-08-19T04:29:12.205Z,10.33
2022-08-19T04:32:37.693Z,9.87
2022-08-19T04:36:01.176Z,11.60
2022-08-19T04:39:49.304Z,10.13
2022-08-19T04:43:13.418Z,9.70
2022-08-19T04:46:40.065Z,9.70
2022-08-19T04:50:16.766Z,9.17
2022-08-19T04:53:44.776Z,9.07
2022-08-19T04:57:10.972Z,10.50
2022-08-19T05:00:35.237Z,12.13
2022-08-19T05:04:03.336Z,11.87
2022-08-19T05:07:28.377Z,11.60
2022-08-19T05:10:54.103Z,12.83
2022-08-19T05:14:17.742Z,10.87
2022-08-19T05:18:02.141Z,10.90
2022-08-19T05:21:43.682Z,11.03
2022-08-19T05:25:13.884Z,10.37
2022-08-19T05:28:37.722Z,12.40
2022-08-19T05:32:01.230Z,9.40
2022-08-19T05:35:25.068Z,8.80
2022-08-19T05:38:50.998Z,10.20
2022-08-19T05:42:16.159Z,10.67
2022-08-19T05:45:44.122Z,9.60
2022-08-19T05:49:08.761Z,8.77
2022-08-19T05:52:32.384Z,11.20
2022-08-19T05:55:57.058Z,10.10
2022-08-19T05:59:24.980Z,9.70
2022-08-19T06:02:48.619Z,10.00
2022-08-19T06:06:15.916Z,10.73
2022-08-19T06:09:39.511Z,10.93
2022-08-19T06:13:03.607Z,9.30
2022-08-19T06:16:29.823Z,8.70
2022-08-19T06:19:53.375Z,11.70
2022-08-19T06:23:17.523Z,9.97
2022-08-19T06:30:15.088Z,9.33
2022-08-19T06:33:40.494Z,9.10
2022-08-19T06:37:06.589Z,9.90
2022-08-19T06:40:30.124Z,9.20
2022-08-19T06:43:54.173Z,9.20
2022-08-19T06:47:28.873Z,9.00
2022-08-19T06:50:53.927Z,11.67
2022-08-19T06:54:20.008Z,10.67
2022-08-19T06:57:47.148Z,10.07
2022-08-19T07:01:11.441Z,11.20
2022-08-19T07:04:37.578Z,9.90
2022-08-19T07:08:04.950Z,9.93
2022-08-19T07:11:33.265Z,9.40
2022-08-19T07:15:01.894Z,10.20
2022-08-19T07:18:25.456Z,9.50
2022-08-19T07:21:53.861Z,10.50
2022-08-19T07:25:20.213Z,9.27
2022-08-19T07:28:46.038Z,8.43
2022-08-19T07:32:14.999Z,9.00
2022-08-19T07:35:38.640Z,9.53
2022-08-19T07:39:07.701Z,9.07
2022-08-19T07:42:32.595Z,8.47
2022-08-19T07:45:58.186Z,9.00
2022-08-19T07:49:23.162Z,8.60
2022-08-19T07:52:48.921Z,9.30
2022-08-19T07:56:15.294Z,8.37
2022-08-19T07:59:40.214Z,8.27
2022-08-19T08:03:03.947Z,9.00
2022-08-19T08:06:45.203Z,8.70
2022-08-19T08:10:20.571Z,7.73
2022-08-19T08:13:45.251Z,9.33
2022-08-19T08:17:11.854Z,7.80
2022-08-19T08:20:35.656Z,8.27
2022-08-19T08:27:30.100Z,7.27
2022-08-19T08:30:56.565Z,7.47
2022-08-19T08:34:22.520Z,8.07
2022-08-19T08:37:46.889Z,9.00
2022-08-19T08:41:29.373Z,9.73
2022-08-19T08:45:00.932Z,7.37
2022-08-19T08:48:36.908Z,9.07
2022-08-19T08:52:09.504Z,7.77
2022-08-19T08:55:36.699Z,8.57
2022-08-19T08:59:08.664Z,9.30
2022-08-19T09:02:32.173Z,8.60
2022-08-19T09:06:03.470Z,9.20
2022-08-19T09:09:36.525Z,8.90
2022-08-19T09:13:15.358Z,8.03
2022-08-19T09:16:41.249Z,7.73
2022-08-19T09:20:20.626Z,6.83
2022-08-19T09:23:44.699Z,7.17
2022-08-19T09:27:18.790Z,7.00
2022-08-19T09:30:43.738Z,7.43
2022-08-19T09:34:07.374Z,9.03
2022-08-19T09:37:44.977Z,7.50
2022-08-19T09:41:12.348Z,7.10
2022-08-19T09:44:37.183Z,7.23
2022-08-19T09:48:00.886Z,7.70
2022-08-19T09:51:30.190Z,7.13
2022-08-19T09:54:55.022Z,6.50
2022-08-19T09:58:19.306Z,6.50
2022-08-19T10:01:49.771Z,5.70
2022-08-19T10:05:30.992Z,6.30
2022-08-19T10:08:55.050Z,7.00
2022-08-19T10:12:20.313Z,7.30
2022-08-19T10:15:47.797Z,7.93
2022-08-19T10:19:14.133Z,6.67
2022-08-19T10:22:38.449Z,6.83
2022-08-19T10:26:02.299Z,5.50
2022-08-19T10:29:32.595Z,6.90
2022-08-19T10:32:56.799Z,6.07
2022-08-19T10:36:25.475Z,5.73
2022-08-19T10:39:49.627Z,5.43
2022-08-19T10:43:13.121Z,6.20
2022-08-19T10:46:46.050Z,5.93
2022-08-19T10:50:30.098Z,5.57
2022-08-19T10:53:56.333Z,6.10
2022-08-19T10:57:18.845Z,5.80
2022-08-19T11:00:43.494Z,6.30
2022-08-19T11:04:09.902Z,5.27
2022-08-19T11:07:33.371Z,5.20
2022-08-19T11:11:04.083Z,4.83
2022-08-19T11:14:31.475Z,4.60
2022-08-19T11:17:57.441Z,4.30
2022-08-19T11:21:24.686Z,5.13
2022-08-19T11:24:48.163Z,5.47
2022-08-19T11:28:13.682Z,4.97
2022-08-19T11:31:39.823Z,5.20
2022-08-19T11:35:03.307Z,4.50
2022-08-19T11:38:27.031Z,5.37
2022-08-19T11:41:51.262Z,5.60
2022-08-19T11:45:16.283Z,4.13
2022-08-19T11:48:41.100Z,4.00
2022-08-19T11:52:05.230Z,4.73
2022-08-19T11:55:28.868Z,4.40
2022-08-19T11:58:54.227Z,4.80
2022-08-19T12:02:20.046Z,5.43
2022-08-19T12:05:44.491Z,4.67
2022-08-19T12:09:12.621Z,4.50
2022-08-19T12:12:36.590Z,4.40
2022-08-19T12:16:00.407Z,4.03
2022-08-19T12:19:25.605Z,4.20
2022-08-19T12:22:49.351Z,4.90
2022-08-19T12:26:14.290Z,4.40
2022-08-19T12:29:38.013Z,4.77
2022-08-19T12:33:01.438Z,4.20
2022-08-19T12:36:27.055Z,4.50
2022-08-19T12:39:50.622Z,4.40
2022-08-19T12:43:14.782Z,5.10
2022-08-19T12:46:38.363Z,4.20
2022-08-19T12:50:06.781Z,4.10
2022-08-19T12:53:31.831Z,5.60
2022-08-19T12:56:55.331Z,3.87
2022-08-19T13:00:22.684Z,4.60
2022-08-19T13:03:48.809Z,3.63
2022-08-19T13:07:14.569Z,4.50
2022-08-19T13:10:39.796Z,4.50
2022-08-19T13:14:05.786Z,5.20
2022-08-19T13:17:29.402Z,5.17
2022-08-19T13:20:53.972Z,5.77
2022-08-19T13:24:17.739Z,5.03
2022-08-19T13:27:42.632Z,6.13
2022-08-19T13:31:24.038Z,6.80
2022-08-19T13:34:47.735Z,6.40
2022-08-19T13:38:12.818Z,7.30
2022-08-19T13:41:36.982Z,7.33
2022-08-19T13:45:02.109Z,7.90
2022-08-19T13:48:27.311Z,8.90
2022-08-19T13:51:51.086Z,9.60
2022-08-19T13:55:16.341Z,8.30
2022-08-19T13:58:48.519Z,7.10
2022-08-19T14:02:13.447Z,8.60
2022-08-19T14:05:37.475Z,7.80
2022-08-19T14:09:02.943Z,6.77
2022-08-19T14:12:28.627Z,7.37
2022-08-19T14:15:54.113Z,6.97
2022-08-19T14:19:20.306Z,7.40
2022-08-19T14:22:45.695Z,7.40
2022-08-19T14:26:12.337Z,7.73
2022-08-19T14:29:36.353Z,6.90
2022-08-19T14:33:02.851Z,6.90
2022-08-19T14:36:27.689Z,7.00
2022-08-19T14:39:51.380Z,6.53
2022-08-19T14:43:15.171Z,6.53
2022-08-19T14:46:48.571Z,6.73
2022-08-19T14:50:18.148Z,6.67
2022-08-19T14:53:44.541Z,5.87
2022-08-19T14:57:08.058Z,6.37
2022-08-19T15:00:31.632Z,6.00
2022-08-19T15:03:55.787Z,5.87
2022-08-19T15:07:19.633Z,5.80
2022-08-19T15:10:44.612Z,5.60
2022-08-19T15:14:08.174Z,4.93
2022-08-19T15:17:43.757Z,5.80
2022-08-19T15:21:25.018Z,5.23
2022-08-19T15:24:50.497Z,5.07
2022-08-19T15:28:17.242Z,5.47
2022-08-19T15:31:40.986Z,5.53
2022-08-19T15:35:05.489Z,5.47
2022-08-19T15:38:29.026Z,5.90
2022-08-19T15:41:52.661Z,7.10
2022-08-19T15:45:20.296Z,6.10
2022-08-19T15:48:43.821Z,6.70
2022-08-19T15:52:12.630Z,5.63
2022-08-19T15:55:43.776Z,5.40
2022-08-19T15:59:24.878Z,6.23
2022-08-19T16:03:07.326Z,5.77
2022-08-19T16:06:32.589Z,5.27
2022-08-19T16:09:56.179Z,5.20
2022-08-19T16:13:20.237Z,5.77
2022-08-19T16:16:46.986Z,5.27
2022-08-19T16:20:13.139Z,6.10
2022-08-19T16:23:37.018Z,5.50
2022-08-19T16:27:01.441Z,6.47
2022-08-19T16:30:25.075Z,6.37
2022-08-19T16:33:48.603Z,6.23
2022-08-19T16:37:14.478Z,5.90
2022-08-19T16:40:38.034Z,6.83
2022-08-19T16:44:01.506Z,7.63
2022-08-19T16:47:25.062Z,7.10
2022-08-19T16:50:49.726Z,7.20
2022-08-19T16:54:15.084Z,6.30
2022-08-19T16:57:38.505Z,6.27
2022-08-19T17:01:05.590Z,5.70
2022-08-19T17:04:29.359Z,6.07
2022-08-19T17:07:52.885Z,5.67
2022-08-19T17:11:19.339Z,6.90
2022-08-19T17:14:45.610Z,5.43
2022-08-19T17:18:12.918Z,6.87
2022-08-19T17:21:39.295Z,5.70
2022-08-19T17:25:02.956Z,5.30
2022-08-19T17:28:30.917Z,5.40
2022-08-19T17:31:54.451Z,4.97
2022-08-19T17:35:24.054Z,5.30
2022-08-19T17:38:48.192Z,5.43
2022-08-19T17:42:11.724Z,5.70
2022-08-19T17:45:37.316Z,4.90
2022-08-19T17:49:00.928Z,6.10
2022-08-19T17:52:24.936Z,5.60
2022-08-19T17:55:48.658Z,4.70
2022-08-19T17:59:14.500Z,4.53
2022-08-19T18:02:47.549Z,5.20
2022-08-19T18:06:16.519Z,5.17
2022-08-19T18:09:43.008Z,5.70
2022-08-19T18:13:17.882Z,4.87
2022-08-19T18:16:41.523Z,4.50
2022-08-19T18:20:12.224Z,5.77
2022-08-19T18:23:45.601Z,6.60
2022-08-19T18:27:09.863Z,5.40
2022-08-19T18:30:34.183Z,5.50
2022-08-19T18:33:57.898Z,5.40
2022-08-19T18:37:23.024Z,4.47
2022-08-19T18:41:04.391Z,4.47
2022-08-19T18:44:45.557Z,4.17
2022-08-19T18:48:28.155Z,5.27
2022-08-19T18:51:52.138Z,4.75
2022-08-19T18:55:17.961Z,4.40
2022-08-19T18:58:43.266Z,5.20
2022-08-19T19:02:07.366Z,4.40
2022-08-19T19:05:30.841Z,4.87
2022-08-19T19:08:56.006Z,5.03
2022-08-19T19:12:21.753Z,4.60
2022-08-19T19:15:45.274Z,5.60
2022-08-19T19:19:13.040Z,4.70
2022-08-19T19:22:36.950Z,5.33
2022-08-19T19:26:00.918Z,5.93
2022-08-19T19:29:26.002Z,4.90
2022-08-19T19:32:51.434Z,5.40
2022-08-19T19:36:15.353Z,5.37
2022-08-19T19:39:46.635Z,5.73
2022-08-19T19:43:10.553Z,5.20
2022-08-19T19:46:35.644Z,5.13
2022-08-19T19:50:15.783Z,5.03
2022-08-19T19:53:39.864Z,5.20
2022-08-19T19:57:03.315Z,5.60
2022-08-19T20:00:27.308Z,4.87
2022-08-19T20:03:52.198Z,4.57
2022-08-19T20:07:15.790Z,5.00
2022-08-19T20:10:40.159Z,4.80
2022-08-19T20:14:08.293Z,4.13
2022-08-19T20:17:32.468Z,3.97
2022-08-19T20:20:57.838Z,4.10
2022-08-19T20:24:25.880Z,4.60
2022-08-19T20:27:49.480Z,4.40
2022-08-19T20:31:13.458Z,4.70
2022-08-19T20:34:37.147Z,4.90
2022-08-19T20:38:02.542Z,4.30
2022-08-19T20:41:26.858Z,4.67
2022-08-19T20:44:50.613Z,4.43
2022-08-19T20:48:14.107Z,4.20
2022-08-19T20:51:37.630Z,4.23
2022-08-19T20:55:04.165Z,4.20
2022-08-19T20:58:28.191Z,3.10
2022-08-19T21:01:52.622Z,2.83
2022-08-19T21:05:16.331Z,2.80
2022-08-19T21:08:41.079Z,2.80
2022-08-19T21:12:07.691Z,2.70
2022-08-19T21:15:31.536Z,2.67
2022-08-19T21:18:55.011Z,2.30
2022-08-19T21:22:19.598Z,2.20
2022-08-19T21:25:43.636Z,2.73
2022-08-19T21:29:19.941Z,2.27
2022-08-19T21:32:43.480Z,2.97
2022-08-19T21:36:08.310Z,2.53
2022-08-19T21:39:31.833Z,2.73
2022-08-19T21:42:56.208Z,2.27
2022-08-19T21:46:21.755Z,1.97
2022-08-19T21:49:45.387Z,1.90
2022-08-19T21:53:11.872Z,1.73
2022-08-19T21:56:41.011Z,1.87
2022-08-19T22:00:10.172Z,1.77
2022-08-19T22:03:37.864Z,1.80
2022-08-19T22:07:01.389Z,1.50
2022-08-19T22:10:27.856Z,1.30
2022-08-19T22:13:53.662Z,1.30
2022-08-19T22:17:17.373Z,1.60
2022-08-19T22:20:42.983Z,1.47
2022-08-19T22:24:07.053Z,1.70
2022-08-19T22:27:30.576Z,1.20
2022-08-19T22:30:54.062Z,1.50
2022-08-19T22:34:18.093Z,1.43
2022-08-19T22:37:43.637Z,1.70
2022-08-19T22:41:08.116Z,1.60
2022-08-19T22:44:32.377Z,1.23
2022-08-19T22:47:56.149Z,1.40
2022-08-19T22:51:37.448Z,1.40
2022-08-19T22:55:07.054Z,1.33
2022-08-19T22:58:30.709Z,1.63
2022-08-19T23:01:54.165Z,1.47
2022-08-19T23:05:17.689Z,1.63
2022-08-19T23:08:45.737Z,2.10
2022-08-19T23:12:12.596Z,2.00
2022-08-19T23:15:36.916Z,1.60
2022-08-19T23:19:00.374Z,2.07
2022-08-19T23:22:25.003Z,2.03
2022-08-19T23:25:50.338Z,1.67
2022-08-19T23:29:32.933Z,1.80
2022-08-19T23:32:59.564Z,1.50
2022-08-19T23:36:23.743Z,1.40
2022-08-19T23:39:47.226Z,1.63
2022-08-19T23:43:13.795Z,1.60
2022-08-19T23:46:54.244Z,1.20
2022-08-19T23:50:19.254Z,1.10
2022-08-19T23:53:43.624Z,1.30
2022-08-19T23:57:13.260Z,1.40
